createdAt,value
2018-04-07T00:00:47.917Z,44.70
2018-04-07T00:03:16.065Z,44.94
2018-04-07T00:05:44.200Z,45.18
2018-04-07T00:08:12.353Z,44.92
2018-04-07T00:10:40.547Z,44.89
2018-04-07T00:13:08.681Z,44.85
2018-04-07T00:15:36.838Z,45.50
2018-04-07T00:18:04.965Z,45.33
2018-04-07T00:20:33.121Z,45.56
2018-04-07T00:23:01.249Z,45.52
2018-04-07T00:25:29.380Z,45.64
2018-04-07T00:27:57.536Z,45.30
2018-04-07T00:30:25.665Z,45.53
2018-04-07T00:32:53.832Z,45.44
2018-04-07T00:35:21.966Z,45.49
2018-04-07T00:37:50.110Z,46.07
2018-04-07T00:40:18.248Z,45.34
2018-04-07T00:42:46.405Z,46.02
2018-04-07T00:45:14.553Z,46.25
2018-04-07T00:47:42.680Z,45.65
2018-04-07T00:50:10.808Z,45.64
2018-04-07T00:52:50.793Z,45.73
2018-04-07T00:55:18.924Z,45.97
2018-04-07T00:57:47.075Z,46.04
2018-04-07T01:00:15.212Z,46.00
2018-04-07T01:02:43.350Z,45.97
2018-04-07T01:05:11.496Z,46.05
2018-04-07T01:07:39.625Z,46.01
2018-04-07T01:10:07.784Z,45.86
2018-04-07T01:12:35.914Z,46.26
2018-04-07T01:15:04.051Z,46.25
2018-04-07T01:17:32.189Z,46.20
2018-04-07T01:20:00.332Z,46.45
2018-04-07T01:22:28.500Z,46.25
2018-04-07T01:24:56.686Z,46.65
2018-04-07T01:27:24.802Z,46.14
2018-04-07T01:29:52.956Z,46.43
2018-04-07T01:32:21.105Z,46.70
2018-04-07T01:34:49.266Z,47.52
2018-04-07T01:37:17.402Z,47.32
2018-04-07T01:39:45.536Z,46.60
2018-04-07T01:42:14.254Z,46.72
2018-04-07T01:44:42.406Z,46.91
2018-04-07T01:47:10.554Z,47.31
2018-04-07T01:49:38.691Z,47.00
2018-04-07T01:52:06.825Z,47.12
2018-04-07T01:54:34.979Z,47.02
2018-04-07T01:57:03.105Z,47.69
2018-04-07T01:59:31.261Z,47.27
2018-04-07T02:01:59.393Z,47.64
2018-04-07T02:04:27.524Z,47.47
2018-04-07T02:06:55.672Z,47.55
2018-04-07T02:09:23.806Z,47.75
2018-04-07T02:11:51.952Z,47.79
2018-04-07T02:14:20.088Z,48.15
2018-04-07T02:16:48.220Z,48.14
2018-04-07T02:19:19.848Z,47.86
2018-04-07T02:21:47.986Z,47.94
2018-04-07T02:24:16.152Z,48.00
2018-04-07T02:26:44.279Z,48.21
2018-04-07T02:29:12.406Z,48.17
2018-04-07T02:31:40.561Z,48.22
2018-04-07T02:34:08.689Z,48.39
2018-04-07T02:36:36.842Z,48.34
2018-04-07T02:39:05.675Z,48.17
2018-04-07T02:41:33.813Z,48.30
2018-04-07T02:44:02.221Z,48.33
2018-04-07T02:46:30.357Z,48.10
2018-04-07T02:48:58.504Z,48.70
2018-04-07T02:51:26.645Z,48.78
2018-04-07T02:53:54.773Z,48.44
2018-04-07T02:56:22.912Z,48.99
2018-04-07T02:58:51.038Z,48.99
2018-04-07T03:01:19.194Z,48.97
2018-04-07T03:03:47.348Z,49.14
2018-04-07T03:06:15.463Z,48.93
2018-04-07T03:08:43.613Z,49.03
2018-04-07T03:11:11.741Z,49.08
2018-04-07T03:13:39.898Z,49.26
2018-04-07T03:16:08.036Z,49.17
2018-04-07T03:18:36.202Z,49.33
2018-04-07T03:21:04.365Z,49.32
2018-04-07T03:23:32.498Z,49.16
2018-04-07T03:26:00.681Z,48.54
2018-04-07T03:28:28.813Z,48.94
2018-04-07T03:30:57.222Z,49.08
2018-04-07T03:33:25.376Z,48.92
2018-04-07T03:35:53.506Z,48.97
2018-04-07T03:38:21.652Z,49.12
2018-04-07T03:40:49.794Z,49.27
2018-04-07T03:43:17.928Z,49.66
2018-04-07T03:45:46.076Z,49.25
2018-04-07T03:48:14.211Z,49.46
2018-04-07T03:50:42.366Z,49.54
2018-04-07T03:53:10.496Z,49.66
2018-04-07T03:55:38.632Z,49.89
2018-04-07T03:58:06.777Z,49.92
2018-04-07T04:00:34.912Z,49.82
2018-04-07T04:03:06.018Z,49.73
2018-04-07T04:05:34.151Z,49.81
2018-04-07T04:08:02.282Z,49.34
2018-04-07T04:10:30.438Z,49.74
2018-04-07T04:12:58.570Z,49.75
2018-04-07T04:15:26.730Z,49.96
2018-04-07T04:17:54.860Z,50.05
2018-04-07T04:20:22.997Z,50.29
2018-04-07T04:22:51.149Z,50.28
2018-04-07T04:25:19.272Z,50.23
2018-04-07T04:27:47.465Z,49.97
2018-04-07T04:30:15.606Z,50.33
2018-04-07T04:32:43.745Z,50.81
2018-04-07T04:35:11.890Z,50.81
2018-04-07T04:37:40.024Z,50.84
2018-04-07T04:40:08.186Z,50.49
2018-04-07T04:42:36.321Z,50.64
2018-04-07T04:45:04.465Z,50.80
2018-04-07T04:47:32.610Z,50.90
2018-04-07T04:50:00.822Z,50.80
2018-04-07T04:52:28.985Z,50.70
2018-04-07T04:54:57.120Z,50.83
2018-04-07T04:57:25.257Z,51.01
2018-04-07T04:59:53.405Z,51.09
2018-04-07T05:02:21.540Z,51.11
2018-04-07T05:04:49.691Z,51.15
2018-04-07T05:07:17.833Z,51.37
2018-04-07T05:09:45.968Z,51.39
2018-04-07T05:12:14.125Z,50.69
2018-04-07T05:14:42.269Z,50.77
2018-04-07T05:17:10.507Z,51.06
2018-04-07T05:19:38.637Z,51.27
2018-04-07T05:22:06.784Z,51.26
2018-04-07T05:24:34.938Z,51.34
2018-04-07T05:27:03.063Z,51.27
2018-04-07T05:29:31.216Z,51.26
2018-04-07T05:31:59.365Z,50.51
2018-04-07T05:34:27.474Z,50.93
2018-04-07T05:36:55.680Z,51.11
2018-04-07T05:39:23.817Z,50.86
2018-04-07T05:41:51.969Z,50.92
2018-04-07T05:44:20.442Z,51.04
2018-04-07T05:46:48.559Z,50.61
2018-04-07T05:49:16.733Z,50.61
2018-04-07T05:51:44.844Z,50.17
2018-04-07T05:54:12.985Z,50.29
2018-04-07T05:56:41.120Z,49.79
2018-04-07T05:59:09.274Z,49.82
2018-04-07T06:01:37.426Z,49.76
2018-04-07T06:04:05.560Z,49.54
2018-04-07T06:06:33.730Z,49.64
2018-04-07T06:09:01.871Z,49.04
2018-04-07T06:11:30.015Z,49.33
2018-04-07T06:13:58.159Z,49.15
2018-04-07T06:16:26.294Z,49.60
2018-04-07T06:18:54.435Z,48.67
2018-04-07T06:21:22.571Z,48.61
2018-04-07T06:23:50.710Z,49.05
2018-04-07T06:26:18.846Z,48.66
2018-04-07T06:28:47.039Z,47.89
2018-04-07T06:31:15.136Z,48.14
2018-04-07T06:33:43.266Z,47.73
2018-04-07T06:36:11.391Z,47.12
2018-04-07T06:38:39.541Z,47.46
2018-04-07T06:41:07.682Z,47.10
2018-04-07T06:43:35.835Z,46.31
2018-04-07T06:46:03.958Z,46.61
2018-04-07T06:48:32.259Z,46.48
2018-04-07T06:51:00.392Z,46.32
2018-04-07T06:53:28.513Z,46.18
2018-04-07T06:55:56.828Z,45.45
2018-04-07T06:58:24.952Z,45.43
2018-04-07T07:00:53.194Z,45.40
2018-04-07T07:03:21.352Z,45.28
2018-04-07T07:05:49.485Z,44.98
2018-04-07T07:08:17.635Z,44.77
2018-04-07T07:10:45.774Z,44.65
2018-04-07T07:13:13.885Z,44.28
2018-04-07T07:15:42.042Z,44.01
2018-04-07T07:18:10.188Z,43.54
2018-04-07T07:20:38.399Z,43.87
2018-04-07T07:23:06.558Z,43.37
2018-04-07T07:25:34.666Z,43.56
2018-04-07T07:28:02.801Z,43.52
2018-04-07T07:30:30.909Z,43.37
2018-04-07T07:32:59.041Z,43.50
2018-04-07T07:35:27.189Z,43.59
2018-04-07T07:37:55.302Z,43.25
2018-04-07T07:40:23.437Z,42.74
2018-04-07T07:42:51.564Z,43.06
2018-04-07T07:45:19.819Z,42.52
2018-04-07T07:47:47.965Z,42.21
2018-04-07T07:50:16.079Z,41.90
2018-04-07T07:52:44.220Z,41.77
2018-04-07T07:55:12.374Z,42.01
2018-04-07T07:57:40.515Z,41.85
2018-04-07T08:00:08.635Z,41.54
2018-04-07T08:02:36.768Z,40.79
2018-04-07T08:05:04.915Z,40.91
2018-04-07T08:07:33.065Z,40.51
2018-04-07T08:10:01.226Z,39.87
2018-04-07T08:12:29.461Z,40.12
2018-04-07T08:14:57.582Z,39.88
2018-04-07T08:17:25.723Z,40.09
2018-04-07T08:19:53.841Z,39.88
2018-04-07T08:22:21.986Z,40.17
2018-04-07T08:24:50.115Z,40.42
2018-04-07T08:27:18.268Z,40.80
2018-04-07T08:29:46.426Z,40.70
2018-04-07T08:32:14.588Z,39.78
2018-04-07T08:34:42.731Z,40.32
2018-04-07T08:37:14.777Z,38.89
2018-04-07T08:39:39.017Z,39.88
2018-04-07T08:42:07.150Z,39.53
2018-04-07T08:44:35.292Z,38.30
2018-04-07T08:47:03.449Z,38.48
2018-04-07T08:49:31.584Z,38.49
2018-04-07T08:51:59.700Z,37.67
2018-04-07T08:54:27.847Z,37.75
2018-04-07T08:56:55.995Z,37.50
2018-04-07T08:59:24.191Z,37.77
2018-04-07T09:01:52.324Z,37.65
2018-04-07T09:04:20.459Z,37.09
2018-04-07T09:06:48.598Z,36.73
2018-04-07T09:09:16.729Z,37.62
2018-04-07T09:11:44.889Z,36.57
2018-04-07T09:14:13.093Z,36.82
2018-04-07T09:16:41.227Z,37.32
2018-04-07T09:19:09.391Z,37.23
2018-04-07T09:21:37.525Z,36.87
2018-04-07T09:24:05.669Z,37.41
2018-04-07T09:26:37.597Z,36.06
2018-04-07T09:29:05.732Z,35.95
2018-04-07T09:31:34.026Z,35.57
2018-04-07T09:34:02.528Z,34.75
2018-04-07T09:36:30.647Z,34.79
2018-04-07T09:38:58.764Z,35.29
2018-04-07T09:41:26.882Z,35.26
2018-04-07T09:43:58.438Z,35.31
2018-04-07T09:46:26.568Z,35.10
2018-04-07T09:48:58.464Z,35.17
2018-04-07T09:51:26.589Z,34.65
2018-04-07T09:53:54.696Z,35.59
2018-04-07T09:56:22.837Z,34.53
2018-04-07T09:58:50.981Z,34.62
2018-04-07T10:01:19.097Z,34.29
2018-04-07T10:03:47.248Z,34.73
2018-04-07T10:06:15.379Z,34.13
2018-04-07T10:08:43.506Z,33.89
2018-04-07T10:11:11.631Z,34.29
2018-04-07T10:13:43.533Z,33.60
2018-04-07T10:16:11.642Z,33.84
2018-04-07T10:18:39.783Z,33.93
2018-04-07T10:21:07.971Z,33.89
2018-04-07T10:23:36.111Z,33.29
2018-04-07T10:26:04.244Z,33.24
2018-04-07T10:28:32.360Z,33.56
2018-04-07T10:31:00.495Z,33.13
2018-04-07T10:33:28.660Z,33.85
2018-04-07T10:35:56.790Z,33.51
2018-04-07T10:38:24.927Z,33.28
2018-04-07T10:40:53.051Z,33.41
2018-04-07T10:43:21.185Z,33.13
2018-04-07T10:45:52.479Z,32.58
2018-04-07T10:48:20.625Z,33.50
2018-04-07T10:50:48.843Z,33.38
2018-04-07T10:53:17.036Z,33.04
2018-04-07T10:55:45.180Z,33.10
2018-04-07T10:58:13.322Z,33.16
2018-04-07T11:00:41.510Z,33.25
2018-04-07T11:03:09.647Z,32.86
2018-04-07T11:05:37.784Z,32.41
2018-04-07T11:08:06.038Z,32.81
2018-04-07T11:10:34.215Z,32.19
2018-04-07T11:13:02.320Z,32.33
2018-04-07T11:15:30.442Z,31.76
2018-04-07T11:17:58.590Z,31.75
2018-04-07T11:20:26.743Z,31.77
2018-04-07T11:22:54.887Z,31.64
2018-04-07T11:25:23.031Z,30.84
2018-04-07T11:27:51.159Z,31.02
2018-04-07T11:30:19.294Z,31.02
2018-04-07T11:32:47.431Z,31.10
2018-04-07T11:35:15.556Z,30.84
2018-04-07T11:37:43.752Z,31.40
2018-04-07T11:40:11.879Z,30.93
2018-04-07T11:42:40.042Z,31.19
2018-04-07T11:45:08.213Z,30.94
2018-04-07T11:47:36.344Z,31.34
2018-04-07T11:50:07.879Z,31.06
2018-04-07T11:52:36.040Z,31.09
2018-04-07T11:55:04.207Z,31.32
2018-04-07T11:57:32.334Z,31.55
2018-04-07T12:00:00.466Z,31.51
2018-04-07T12:02:28.658Z,31.45
2018-04-07T12:04:56.736Z,31.32
2018-04-07T12:07:24.881Z,31.75
2018-04-07T12:09:52.983Z,31.04
2018-04-07T12:12:21.115Z,30.80
2018-04-07T12:14:49.264Z,30.59
2018-04-07T12:17:17.387Z,30.52
2018-04-07T12:19:45.526Z,29.94
2018-04-07T12:22:13.674Z,30.02
2018-04-07T12:24:42.035Z,29.60
2018-04-07T12:27:10.171Z,29.59
2018-04-07T12:29:38.775Z,29.56
2018-04-07T12:32:06.925Z,29.41
2018-04-07T12:34:35.048Z,29.91
2018-04-07T12:37:03.200Z,29.88
2018-04-07T12:39:31.392Z,30.00
2018-04-07T12:41:59.569Z,29.55
2018-04-07T12:44:27.711Z,30.05
2018-04-07T12:46:55.837Z,29.81
2018-04-07T12:49:23.979Z,29.03
2018-04-07T12:51:52.109Z,29.16
2018-04-07T12:54:20.252Z,29.13
2018-04-07T12:56:48.378Z,29.37
2018-04-07T12:59:16.530Z,28.97
2018-04-07T13:01:44.667Z,29.43
2018-04-07T13:04:12.790Z,29.34
2018-04-07T13:06:40.948Z,29.75
2018-04-07T13:09:09.059Z,29.65
2018-04-07T13:11:37.173Z,29.28
2018-04-07T13:14:05.333Z,29.15
2018-04-07T13:16:33.468Z,30.11
2018-04-07T13:19:01.620Z,29.66
2018-04-07T13:21:29.767Z,29.39
2018-04-07T13:23:57.890Z,29.39
2018-04-07T13:26:26.020Z,29.65
2018-04-07T13:28:54.177Z,29.53
2018-04-07T13:31:22.300Z,29.80
2018-04-07T13:33:50.455Z,29.26
2018-04-07T13:36:18.570Z,29.42
2018-04-07T13:38:46.706Z,29.38
2018-04-07T13:41:14.835Z,29.54
2018-04-07T13:43:43.027Z,29.06
2018-04-07T13:46:11.501Z,28.99
2018-04-07T13:48:39.896Z,29.22
2018-04-07T13:51:08.172Z,29.58
2018-04-07T13:53:36.288Z,29.24
2018-04-07T13:56:04.438Z,29.30
2018-04-07T13:58:32.574Z,29.91
2018-04-07T14:01:00.696Z,29.84
2018-04-07T14:03:28.853Z,29.60
2018-04-07T14:05:56.992Z,29.36
2018-04-07T14:08:25.169Z,29.28
2018-04-07T14:10:53.276Z,29.83
2018-04-07T14:13:21.398Z,30.07
2018-04-07T14:15:49.562Z,29.57
2018-04-07T14:18:17.696Z,30.09
2018-04-07T14:20:45.851Z,30.29
2018-04-07T14:23:13.983Z,29.52
2018-04-07T14:25:42.119Z,29.80
2018-04-07T14:28:10.325Z,29.25
2018-04-07T14:30:38.524Z,29.39
2018-04-07T14:33:06.658Z,29.34
2018-04-07T14:35:34.791Z,29.72
2018-04-07T14:38:02.905Z,29.58
2018-04-07T14:40:31.064Z,29.62
2018-04-07T14:42:59.186Z,29.29
2018-04-07T14:45:27.326Z,29.35
2018-04-07T14:47:58.981Z,29.75
2018-04-07T14:50:27.120Z,30.10
2018-04-07T14:52:55.236Z,29.59
2018-04-07T14:55:23.446Z,29.77
2018-04-07T14:57:51.604Z,29.67
2018-04-07T15:00:19.710Z,29.64
2018-04-07T15:02:47.836Z,30.46
2018-04-07T15:05:15.975Z,29.69
2018-04-07T15:07:44.122Z,29.53
2018-04-07T15:10:12.265Z,29.94
2018-04-07T15:12:40.404Z,29.79
2018-04-07T15:15:09.507Z,30.00
2018-04-07T15:17:38.134Z,30.39
2018-04-07T15:20:06.304Z,29.90
2018-04-07T15:22:34.969Z,30.12
2018-04-07T15:25:03.330Z,29.78
2018-04-07T15:27:31.797Z,30.56
2018-04-07T15:30:00.941Z,30.86
2018-04-07T15:32:29.391Z,30.58
2018-04-07T15:34:57.558Z,29.78
2018-04-07T15:37:25.694Z,29.91
2018-04-07T15:39:53.810Z,29.77
2018-04-07T15:42:21.963Z,30.27
2018-04-07T15:44:50.985Z,31.04
2018-04-07T15:47:19.553Z,30.77
2018-04-07T15:49:47.697Z,31.04
2018-04-07T15:52:15.808Z,30.42
2018-04-07T15:54:43.964Z,30.45
2018-04-07T15:57:12.101Z,29.94
2018-04-07T15:59:40.260Z,30.70
2018-04-07T16:02:08.394Z,30.98
2018-04-07T16:04:36.515Z,30.99
2018-04-07T16:07:08.291Z,30.88
2018-04-07T16:09:36.429Z,31.32
2018-04-07T16:12:04.574Z,30.79
2018-04-07T16:14:32.730Z,31.31
2018-04-07T16:17:00.881Z,31.49
2018-04-07T16:19:29.084Z,31.04
2018-04-07T16:21:57.135Z,31.03
2018-04-07T16:24:25.301Z,31.19
2018-04-07T16:26:53.433Z,31.01
2018-04-07T16:29:21.583Z,31.30
2018-04-07T16:31:49.728Z,31.19
2018-04-07T16:34:17.855Z,30.96
2018-04-07T16:36:45.987Z,30.81
2018-04-07T16:39:14.130Z,31.39
2018-04-07T16:41:42.280Z,31.60
2018-04-07T16:44:10.403Z,31.53
2018-04-07T16:46:42.184Z,32.00
2018-04-07T16:49:10.330Z,31.60
2018-04-07T16:51:38.454Z,31.24
2018-04-07T16:54:06.587Z,31.54
2018-04-07T16:56:34.990Z,31.12
2018-04-07T16:59:03.130Z,32.26
2018-04-07T17:01:31.279Z,32.23
2018-04-07T17:03:59.471Z,31.07
2018-04-07T17:06:27.615Z,31.35
2018-04-07T17:08:55.756Z,31.40
2018-04-07T17:11:23.896Z,31.65
2018-04-07T17:13:52.031Z,32.40
2018-04-07T17:16:20.158Z,32.10
2018-04-07T17:18:48.279Z,31.80
2018-04-07T17:21:16.414Z,32.06
2018-04-07T17:23:44.519Z,31.99
2018-04-07T17:26:12.706Z,32.04
2018-04-07T17:28:40.834Z,32.38
2018-04-07T17:31:08.959Z,33.25
2018-04-07T17:33:37.109Z,33.05
2018-04-07T17:36:05.217Z,33.13
2018-04-07T17:38:33.351Z,32.25
2018-04-07T17:41:01.477Z,32.96
2018-04-07T17:43:29.691Z,33.44
2018-04-07T17:45:57.845Z,33.20
2018-04-07T17:48:26.204Z,33.99
2018-04-07T17:50:54.342Z,34.71
2018-04-07T17:53:22.475Z,34.67
2018-04-07T17:55:50.614Z,34.80
2018-04-07T17:58:18.728Z,34.95
2018-04-07T18:00:46.873Z,35.82
2018-04-07T18:03:14.990Z,36.41
2018-04-07T18:05:43.124Z,36.61
2018-04-07T18:08:11.244Z,37.84
2018-04-07T18:10:39.388Z,38.05
2018-04-07T18:13:07.529Z,38.11
2018-04-07T18:15:35.803Z,38.61
2018-04-07T18:18:03.922Z,38.23
2018-04-07T18:20:35.240Z,38.65
2018-04-07T18:23:03.382Z,39.26
2018-04-07T18:25:31.506Z,39.42
2018-04-07T18:27:59.646Z,39.46
2018-04-07T18:30:27.741Z,39.47
2018-04-07T18:32:55.887Z,40.13
2018-04-07T18:35:24.019Z,42.08
2018-04-07T18:37:55.455Z,40.81
2018-04-07T18:40:23.605Z,40.64
2018-04-07T18:42:51.718Z,40.63
2018-04-07T18:45:19.865Z,41.67
2018-04-07T18:47:47.981Z,42.70
2018-04-07T18:50:16.130Z,42.80
2018-04-07T18:52:44.266Z,43.12
2018-04-07T18:55:12.373Z,43.83
2018-04-07T18:57:40.491Z,43.53
2018-04-07T19:00:08.637Z,43.29
2018-04-07T19:02:36.753Z,43.26
2018-04-07T19:05:04.887Z,42.31
2018-04-07T19:07:33.101Z,42.27
2018-04-07T19:10:01.193Z,42.80
2018-04-07T19:12:29.330Z,43.28
2018-04-07T19:14:57.441Z,42.78
2018-04-07T19:17:25.586Z,43.32
2018-04-07T19:19:53.711Z,43.90
2018-04-07T19:22:21.835Z,43.82
2018-04-07T19:24:49.964Z,43.63
2018-04-07T19:27:18.074Z,43.59
2018-04-07T19:29:46.214Z,43.74
2018-04-07T19:32:14.339Z,43.80
2018-04-07T19:34:42.462Z,43.95
2018-04-07T19:37:10.654Z,44.11
2018-04-07T19:39:38.793Z,44.50
2018-04-07T19:42:06.926Z,45.05
2018-04-07T19:44:35.070Z,44.37
2018-04-07T19:47:03.422Z,44.55
2018-04-07T19:49:31.539Z,44.66
2018-04-07T19:51:59.644Z,45.53
2018-04-07T19:54:30.980Z,45.34
2018-04-07T19:56:59.111Z,45.73
2018-04-07T19:59:27.245Z,45.24
2018-04-07T20:01:55.383Z,44.71
2018-04-07T20:04:23.519Z,44.60
2018-04-07T20:06:51.663Z,45.24
2018-04-07T20:09:19.779Z,45.15
2018-04-07T20:11:47.902Z,45.43
2018-04-07T20:14:16.044Z,45.33
2018-04-07T20:16:44.185Z,45.15
2018-04-07T20:19:12.315Z,45.39
2018-04-07T20:21:40.438Z,45.73
2018-04-07T20:24:08.574Z,46.54
2018-04-07T20:26:36.715Z,46.55
2018-04-07T20:29:04.824Z,47.26
2018-04-07T20:31:32.965Z,47.74
2018-04-07T20:34:01.072Z,48.09
2018-04-07T20:36:29.215Z,48.36
2018-04-07T20:38:57.334Z,48.29
2018-04-07T20:41:25.477Z,48.25
2018-04-07T20:43:53.620Z,47.95
2018-04-07T20:46:21.739Z,47.96
2018-04-07T20:48:53.537Z,48.46
2018-04-07T20:51:21.682Z,48.48
2018-04-07T20:53:49.811Z,48.52
2018-04-07T20:56:17.973Z,47.40
2018-04-07T20:58:46.104Z,46.79
2018-04-07T21:01:14.223Z,46.40
2018-04-07T21:03:42.341Z,46.27
2018-04-07T21:06:10.460Z,46.08
2018-04-07T21:08:38.575Z,46.52
2018-04-07T21:11:06.708Z,46.54
2018-04-07T21:13:34.815Z,46.44
2018-04-07T21:16:02.951Z,46.74
2018-04-07T21:18:31.086Z,46.88
2018-04-07T21:20:59.215Z,46.93
2018-04-07T21:23:27.381Z,47.27
2018-04-07T21:25:55.525Z,47.45
2018-04-07T21:28:23.660Z,47.77
2018-04-07T21:30:51.808Z,47.92
2018-04-07T21:33:19.977Z,47.38
2018-04-07T21:35:48.102Z,47.39
2018-04-07T21:38:16.208Z,47.45
2018-04-07T21:40:44.344Z,47.65
2018-04-07T21:43:12.486Z,47.48
2018-04-07T21:45:40.613Z,47.45
2018-04-07T21:48:08.738Z,47.88
2018-04-07T21:50:36.856Z,48.17
2018-04-07T21:53:05.015Z,48.46
2018-04-07T21:55:33.144Z,48.63
2018-04-07T21:58:01.257Z,49.12
2018-04-07T22:00:29.402Z,49.42
2018-04-07T22:02:57.511Z,49.82
2018-04-07T22:05:25.725Z,50.11
2018-04-07T22:07:53.994Z,50.00
2018-04-07T22:10:22.105Z,50.16
2018-04-07T22:12:50.218Z,50.13
2018-04-07T22:15:18.353Z,50.00
2018-04-07T22:17:46.482Z,49.91
2018-04-07T22:20:14.625Z,50.02
2018-04-07T22:22:42.762Z,50.09
2018-04-07T22:25:10.907Z,50.54
2018-04-07T22:27:39.005Z,50.74
2018-04-07T22:30:07.147Z,50.86
2018-04-07T22:32:35.287Z,50.73
2018-04-07T22:35:03.435Z,50.46
2018-04-07T22:37:31.560Z,51.15
2018-04-07T22:39:59.713Z,51.05
2018-04-07T22:42:27.852Z,51.28
2018-04-07T22:44:55.973Z,51.51
2018-04-07T22:47:24.133Z,51.45
2018-04-07T22:49:52.266Z,51.70
2018-04-07T22:52:20.409Z,51.86
2018-04-07T22:54:48.542Z,51.94
2018-04-07T22:57:16.673Z,51.65
2018-04-07T22:59:44.825Z,51.41
2018-04-07T23:02:12.965Z,51.07
2018-04-07T23:04:41.091Z,50.82
2018-04-07T23:07:09.223Z,51.26
2018-04-07T23:09:37.345Z,51.53
2018-04-07T23:12:05.475Z,51.00
2018-04-07T23:14:33.588Z,51.28
2018-04-07T23:17:01.735Z,51.17
2018-04-07T23:19:29.865Z,51.61
2018-04-07T23:21:57.995Z,51.41
2018-04-07T23:24:26.115Z,51.19
2018-04-07T23:26:54.234Z,51.35
2018-04-07T23:29:22.354Z,52.10
2018-04-07T23:31:50.494Z,52.17
2018-04-07T23:34:18.650Z,52.36
2018-04-07T23:36:46.771Z,52.56
2018-04-07T23:39:14.876Z,52.86
2018-04-07T23:41:43.041Z,52.97
2018-04-07T23:44:11.168Z,53.04
2018-04-07T23:46:39.289Z,52.96
2018-04-07T23:49:07.646Z,53.16
2018-04-07T23:51:36.078Z,53.36
2018-04-07T23:54:04.364Z,53.30
2018-04-07T23:56:32.494Z,53.35
2018-04-07T23:59:00.614Z,53.63
